Brimson, Minnesota
Current Conditions -  °F | °C
As of 2:41 PM on Thursday 18 Dec 2014 (Local Time) from KTWM Reporting Station
Overcast Overcast  
Wind Chill: 23°   Ceiling: 1900
Heat Index: 30°   Visibility: 10mi
Dew Point: 23°   Wind: 7mph
Humidity: 75%   Direction: 130°SE
Pressure: 30.21"   Gusts: NA
Location:  47.28°N, 91.87°W
Report Text: KTWM 182041Z AUTO 13006KT 10SM BKN019 OVC024 M01/M05 A3021 RMK AO2
Loading
Personal Weather Stations






























Interactive Weather Map New forecast layout! Learn more

10-Day Weather Forecast

Advertisements
Track Severe Weather on mobile